Pakyong Airport

Current Flights

Departures
Number Departure To Airline
Arrivals
Number Arrival From Airline
Info
Name: Pakyong Airport
Identifier:  PYG/VEPY
Local Time:  25. Jun 15:32
City
Pakyong
  India

Flights per Day
0 flights
Punctuality
0% (0 flights per day delayed)
Delay Average: 11 minutes
Current Weather
 24 C (Humidity: 64%)
  2kt (3km/h / 2mph) from 200°
  Few clouds at 800 feet (243 meter)
  Scattered clouds at 1,200 feet (365 meter)
  Overcast at 8,000 feet (2,438 meter)
  0km (0 mi.)
No significant changes expected

 Fog
 METAR VEPY 251000Z 20002KT 0500 FG FEW008 SCT012 OVC080 24/17 Q1011 NOSIG

Current Delays

Departures
N/A
Arrivals
N/A

Destinations

Top Destinations
Airport Flights
per week
Seats
per week
  Kolkata (CCU) 1 91 0 13

Airlines & Planes

Top Airlines
Airline Flights
per Day
Seats
per Day
  SpiceJet 0 13
Top Plane Types
Model Flights Seats
Bombardier Dash 8-400 0.1/day 10/day 10.4
Bombardier Dash 8-400 0.0/day 2/day 2.6